sensor_id;sensor_type;location;lat;lon;timestamp;P1;durP1;ratioP1;P2;durP2;ratioP2
53642;SDS011;39546;45.534;12.048;2023-10-19T00:02:31;10.02;;;8.05;;
53642;SDS011;39546;45.534;12.048;2023-10-19T00:08:33;7.10;;;5.62;;
53642;SDS011;39546;45.534;12.048;2023-10-19T00:14:42;11.57;;;9.98;;
53642;SDS011;39546;45.534;12.048;2023-10-19T00:20:45;10.45;;;8.50;;
53642;SDS011;39546;45.534;12.048;2023-10-19T00:26:54;11.20;;;7.65;;
53642;SDS011;39546;45.534;12.048;2023-10-19T00:32:56;12.15;;;8.82;;
53642;SDS011;39546;45.534;12.048;2023-10-19T00:39:04;8.10;;;6.45;;
53642;SDS011;39546;45.534;12.048;2023-10-19T00:45:15;11.10;;;8.35;;
53642;SDS011;39546;45.534;12.048;2023-10-19T00:51:58;12.93;;;9.57;;
53642;SDS011;39546;45.534;12.048;2023-10-19T00:57:54;13.45;;;8.75;;
53642;SDS011;39546;45.534;12.048;2023-10-19T01:03:58;9.90;;;7.30;;
53642;SDS011;39546;45.534;12.048;2023-10-19T01:10:01;10.95;;;8.40;;
53642;SDS011;39546;45.534;12.048;2023-10-19T01:16:11;10.43;;;8.02;;
53642;SDS011;39546;45.534;12.048;2023-10-19T01:22:22;12.37;;;9.13;;
53642;SDS011;39546;45.534;12.048;2023-10-19T01:28:31;9.65;;;6.53;;
53642;SDS011;39546;45.534;12.048;2023-10-19T01:34:52;12.37;;;8.65;;
53642;SDS011;39546;45.534;12.048;2023-10-19T01:40:55;10.38;;;7.65;;
53642;SDS011;39546;45.534;12.048;2023-10-19T01:47:00;9.88;;;8.02;;
53642;SDS011;39546;45.534;12.048;2023-10-19T01:53:02;9.30;;;7.65;;
53642;SDS011;39546;45.534;12.048;2023-10-19T01:59:14;9.23;;;7.60;;
53642;SDS011;39546;45.534;12.048;2023-10-19T02:05:18;9.88;;;8.88;;
53642;SDS011;39546;45.534;12.048;2023-10-19T02:11:20;10.63;;;7.78;;
53642;SDS011;39546;45.534;12.048;2023-10-19T02:17:25;8.07;;;6.50;;
53642;SDS011;39546;45.534;12.048;2023-10-19T02:23:28;10.48;;;7.70;;
53642;SDS011;39546;45.534;12.048;2023-10-19T02:29:30;7.35;;;5.75;;
53642;SDS011;39546;45.534;12.048;2023-10-19T02:35:33;5.28;;;3.50;;
53642;SDS011;39546;45.534;12.048;2023-10-19T02:41:39;9.57;;;7.07;;
53642;SDS011;39546;45.534;12.048;2023-10-19T02:47:43;11.68;;;9.65;;
53642;SDS011;39546;45.534;12.048;2023-10-19T02:53:46;7.32;;;5.90;;
53642;SDS011;39546;45.534;12.048;2023-10-19T02:59:48;7.15;;;5.53;;
53642;SDS011;39546;45.534;12.048;2023-10-19T03:05:51;9.13;;;6.28;;
53642;SDS011;39546;45.534;12.048;2023-10-19T03:11:54;7.45;;;6.40;;
53642;SDS011;39546;45.534;12.048;2023-10-19T03:18:01;7.93;;;6.32;;
53642;SDS011;39546;45.534;12.048;2023-10-19T03:24:06;7.20;;;5.05;;
53642;SDS011;39546;45.534;12.048;2023-10-19T03:30:13;8.73;;;6.60;;
53642;SDS011;39546;45.534;12.048;2023-10-19T03:36:17;7.03;;;5.53;;
53642;SDS011;39546;45.534;12.048;2023-10-19T03:42:19;8.30;;;7.00;;
53642;SDS011;39546;45.534;12.048;2023-10-19T03:48:23;9.38;;;7.50;;
53642;SDS011;39546;45.534;12.048;2023-10-19T03:54:28;7.53;;;6.05;;
53642;SDS011;39546;45.534;12.048;2023-10-19T04:00:30;7.22;;;5.75;;
53642;SDS011;39546;45.534;12.048;2023-10-19T04:06:35;8.88;;;6.50;;
53642;SDS011;39546;45.534;12.048;2023-10-19T04:12:39;6.57;;;5.00;;
53642;SDS011;39546;45.534;12.048;2023-10-19T04:18:45;8.05;;;6.87;;
53642;SDS011;39546;45.534;12.048;2023-10-19T04:24:47;10.35;;;7.55;;
53642;SDS011;39546;45.534;12.048;2023-10-19T04:30:50;6.55;;;5.22;;
53642;SDS011;39546;45.534;12.048;2023-10-19T04:36:52;7.28;;;5.78;;
53642;SDS011;39546;45.534;12.048;2023-10-19T04:42:55;8.30;;;6.82;;
53642;SDS011;39546;45.534;12.048;2023-10-19T04:48:57;7.65;;;5.97;;
53642;SDS011;39546;45.534;12.048;2023-10-19T04:55:00;6.82;;;5.05;;
53642;SDS011;39546;45.534;12.048;2023-10-19T05:01:02;9.45;;;7.78;;
53642;SDS011;39546;45.534;12.048;2023-10-19T05:07:06;8.70;;;6.95;;
53642;SDS011;39546;45.534;12.048;2023-10-19T05:13:13;8.48;;;6.82;;
53642;SDS011;39546;45.534;12.048;2023-10-19T05:25:40;9.02;;;6.85;;
53642;SDS011;39546;45.534;12.048;2023-10-19T05:31:42;6.95;;;5.10;;
53642;SDS011;39546;45.534;12.048;2023-10-19T05:37:44;8.75;;;6.82;;
53642;SDS011;39546;45.534;12.048;2023-10-19T05:43:47;9.52;;;5.50;;
53642;SDS011;39546;45.534;12.048;2023-10-19T05:49:50;8.55;;;6.25;;
53642;SDS011;39546;45.534;12.048;2023-10-19T05:55:52;7.50;;;5.55;;
53642;SDS011;39546;45.534;12.048;2023-10-19T06:01:54;8.43;;;5.62;;
53642;SDS011;39546;45.534;12.048;2023-10-19T06:07:57;6.80;;;4.82;;
53642;SDS011;39546;45.534;12.048;2023-10-19T06:14:01;5.45;;;4.62;;
53642;SDS011;39546;45.534;12.048;2023-10-19T06:20:04;7.20;;;4.95;;
53642;SDS011;39546;45.534;12.048;2023-10-19T06:26:09;6.18;;;4.07;;
53642;SDS011;39546;45.534;12.048;2023-10-19T06:32:13;6.47;;;4.32;;
53642;SDS011;39546;45.534;12.048;2023-10-19T06:38:15;8.85;;;5.90;;
53642;SDS011;39546;45.534;12.048;2023-10-19T06:44:22;6.05;;;4.50;;
53642;SDS011;39546;45.534;12.048;2023-10-19T06:50:24;6.53;;;5.65;;
53642;SDS011;39546;45.534;12.048;2023-10-19T06:56:31;8.02;;;5.93;;
53642;SDS011;39546;45.534;12.048;2023-10-19T07:02:34;6.70;;;4.20;;
53642;SDS011;39546;45.534;12.048;2023-10-19T07:08:36;6.72;;;4.50;;
53642;SDS011;39546;45.534;12.048;2023-10-19T07:14:38;6.75;;;4.68;;
53642;SDS011;39546;45.534;12.048;2023-10-19T07:20:42;5.25;;;3.50;;
53642;SDS011;39546;45.534;12.048;2023-10-19T07:26:45;5.30;;;4.03;;
53642;SDS011;39546;45.534;12.048;2023-10-19T07:32:55;7.22;;;3.35;;
53642;SDS011;39546;45.534;12.048;2023-10-19T07:39:00;5.30;;;4.53;;
53642;SDS011;39546;45.534;12.048;2023-10-19T07:45:02;5.35;;;4.25;;
53642;SDS011;39546;45.534;12.048;2023-10-19T07:51:06;5.50;;;3.15;;
53642;SDS011;39546;45.534;12.048;2023-10-19T07:57:12;3.12;;;2.45;;
53642;SDS011;39546;45.534;12.048;2023-10-19T08:03:14;4.47;;;3.37;;
53642;SDS011;39546;45.534;12.048;2023-10-19T08:09:26;5.12;;;3.35;;
53642;SDS011;39546;45.534;12.048;2023-10-19T08:15:36;3.03;;;2.47;;
53642;SDS011;39546;45.534;12.048;2023-10-19T08:21:39;3.97;;;2.83;;
53642;SDS011;39546;45.534;12.048;2023-10-19T08:27:41;3.80;;;3.10;;
53642;SDS011;39546;45.534;12.048;2023-10-19T08:33:46;5.85;;;3.17;;
53642;SDS011;39546;45.534;12.048;2023-10-19T08:39:49;3.80;;;2.67;;
53642;SDS011;39546;45.534;12.048;2023-10-19T08:45:53;4.45;;;3.00;;
53642;SDS011;39546;45.534;12.048;2023-10-19T08:51:57;4.37;;;3.42;;
53642;SDS011;39546;45.534;12.048;2023-10-19T08:58:02;3.17;;;2.53;;
53642;SDS011;39546;45.534;12.048;2023-10-19T09:04:06;4.40;;;3.22;;
53642;SDS011;39546;45.534;12.048;2023-10-19T09:16:37;2.72;;;2.12;;
53642;SDS011;39546;45.534;12.048;2023-10-19T09:22:40;4.68;;;2.60;;
53642;SDS011;39546;45.534;12.048;2023-10-19T09:28:46;2.67;;;2.45;;
53642;SDS011;39546;45.534;12.048;2023-10-19T09:34:52;3.37;;;2.30;;
53642;SDS011;39546;45.534;12.048;2023-10-19T09:40:55;2.47;;;2.08;;
53642;SDS011;39546;45.534;12.048;2023-10-19T09:46:59;2.25;;;2.05;;
53642;SDS011;39546;45.534;12.048;2023-10-19T09:53:05;1.90;;;1.73;;
53642;SDS011;39546;45.534;12.048;2023-10-19T09:59:21;2.60;;;2.10;;
53642;SDS011;39546;45.534;12.048;2023-10-19T10:11:44;4.07;;;2.70;;
53642;SDS011;39546;45.534;12.048;2023-10-19T10:17:49;6.60;;;3.62;;
53642;SDS011;39546;45.534;12.048;2023-10-19T10:23:57;2.70;;;2.50;;
53642;SDS011;39546;45.534;12.048;2023-10-19T10:30:04;5.17;;;3.37;;
53642;SDS011;39546;45.534;12.048;2023-10-19T10:36:08;3.75;;;3.00;;
53642;SDS011;39546;45.534;12.048;2023-10-19T10:42:11;2.78;;;2.35;;
53642;SDS011;39546;45.534;12.048;2023-10-19T10:48:14;2.97;;;2.42;;
53642;SDS011;39546;45.534;12.048;2023-10-19T10:54:20;4.55;;;3.37;;
53642;SDS011;39546;45.534;12.048;2023-10-19T11:00:23;5.12;;;3.50;;
53642;SDS011;39546;45.534;12.048;2023-10-19T11:06:27;3.50;;;2.42;;
53642;SDS011;39546;45.534;12.048;2023-10-19T11:12:29;4.35;;;2.97;;
53642;SDS011;39546;45.534;12.048;2023-10-19T11:18:33;4.57;;;3.37;;
53642;SDS011;39546;45.534;12.048;2023-10-19T11:24:40;4.70;;;3.35;;
53642;SDS011;39546;45.534;12.048;2023-10-19T11:30:42;3.87;;;2.42;;
53642;SDS011;39546;45.534;12.048;2023-10-19T11:36:45;5.75;;;3.22;;
53642;SDS011;39546;45.534;12.048;2023-10-19T11:42:47;4.45;;;3.58;;
53642;SDS011;39546;45.534;12.048;2023-10-19T11:48:53;5.62;;;4.07;;
53642;SDS011;39546;45.534;12.048;2023-10-19T11:54:55;5.45;;;3.25;;
53642;SDS011;39546;45.534;12.048;2023-10-19T12:00:58;5.07;;;3.37;;
53642;SDS011;39546;45.534;12.048;2023-10-19T12:07:00;6.80;;;4.10;;
53642;SDS011;39546;45.534;12.048;2023-10-19T12:13:04;7.40;;;4.22;;
53642;SDS011;39546;45.534;12.048;2023-10-19T12:19:13;7.25;;;4.60;;
53642;SDS011;39546;45.534;12.048;2023-10-19T12:25:20;11.52;;;6.70;;
53642;SDS011;39546;45.534;12.048;2023-10-19T12:31:30;8.13;;;5.30;;
53642;SDS011;39546;45.534;12.048;2023-10-19T12:37:43;10.30;;;4.68;;
53642;SDS011;39546;45.534;12.048;2023-10-19T12:43:48;10.82;;;6.35;;
53642;SDS011;39546;45.534;12.048;2023-10-19T12:49:53;8.85;;;5.68;;
53642;SDS011;39546;45.534;12.048;2023-10-19T12:55:55;16.92;;;8.15;;
53642;SDS011;39546;45.534;12.048;2023-10-19T13:01:57;8.98;;;7.15;;
53642;SDS011;39546;45.534;12.048;2023-10-19T13:08:00;8.60;;;6.28;;
53642;SDS011;39546;45.534;12.048;2023-10-19T13:14:02;8.68;;;6.00;;
53642;SDS011;39546;45.534;12.048;2023-10-19T13:20:07;9.15;;;6.18;;
53642;SDS011;39546;45.534;12.048;2023-10-19T13:26:20;9.27;;;6.03;;
53642;SDS011;39546;45.534;12.048;2023-10-19T13:32:27;9.50;;;5.70;;
53642;SDS011;39546;45.534;12.048;2023-10-19T13:38:32;9.20;;;5.30;;
53642;SDS011;39546;45.534;12.048;2023-10-19T13:44:34;8.95;;;6.85;;
53642;SDS011;39546;45.534;12.048;2023-10-19T13:50:40;9.57;;;6.03;;
53642;SDS011;39546;45.534;12.048;2023-10-19T13:56:49;7.85;;;4.82;;
53642;SDS011;39546;45.534;12.048;2023-10-19T14:02:52;12.98;;;5.68;;
53642;SDS011;39546;45.534;12.048;2023-10-19T14:08:55;9.23;;;5.10;;
53642;SDS011;39546;45.534;12.048;2023-10-19T14:15:01;7.68;;;6.10;;
53642;SDS011;39546;45.534;12.048;2023-10-19T14:21:11;6.93;;;5.53;;
53642;SDS011;39546;45.534;12.048;2023-10-19T14:27:15;14.27;;;7.60;;
53642;SDS011;39546;45.534;12.048;2023-10-19T14:33:17;7.45;;;5.62;;
53642;SDS011;39546;45.534;12.048;2023-10-19T14:54:33;8.15;;;5.30;;
53642;SDS011;39546;45.534;12.048;2023-10-19T15:00:36;9.48;;;6.53;;
53642;SDS011;39546;45.534;12.048;2023-10-19T15:06:50;8.10;;;6.37;;
53642;SDS011;39546;45.534;12.048;2023-10-19T15:12:54;9.60;;;6.07;;
53642;SDS011;39546;45.534;12.048;2023-10-19T15:18:57;9.00;;;6.78;;
53642;SDS011;39546;45.534;12.048;2023-10-19T15:25:01;8.77;;;5.50;;
53642;SDS011;39546;45.534;12.048;2023-10-19T15:31:05;10.07;;;7.53;;
53642;SDS011;39546;45.534;12.048;2023-10-19T15:37:07;9.88;;;7.30;;
53642;SDS011;39546;45.534;12.048;2023-10-19T15:43:10;12.00;;;8.13;;
53642;SDS011;39546;45.534;12.048;2023-10-19T15:49:12;10.27;;;8.45;;
53642;SDS011;39546;45.534;12.048;2023-10-19T15:55:15;15.10;;;8.77;;
53642;SDS011;39546;45.534;12.048;2023-10-19T16:01:18;14.60;;;10.02;;
53642;SDS011;39546;45.534;12.048;2023-10-19T16:07:21;11.60;;;7.72;;
53642;SDS011;39546;45.534;12.048;2023-10-19T16:13:23;10.57;;;7.72;;
53642;SDS011;39546;45.534;12.048;2023-10-19T16:19:44;10.70;;;8.10;;
53642;SDS011;39546;45.534;12.048;2023-10-19T16:32:11;8.80;;;7.15;;
53642;SDS011;39546;45.534;12.048;2023-10-19T16:38:13;12.85;;;8.15;;
53642;SDS011;39546;45.534;12.048;2023-10-19T16:44:16;13.05;;;7.18;;
53642;SDS011;39546;45.534;12.048;2023-10-19T16:50:18;7.72;;;6.10;;
53642;SDS011;39546;45.534;12.048;2023-10-19T16:56:21;10.30;;;8.43;;
53642;SDS011;39546;45.534;12.048;2023-10-19T17:02:42;12.40;;;7.87;;
53642;SDS011;39546;45.534;12.048;2023-10-19T17:09:18;14.23;;;9.20;;
53642;SDS011;39546;45.534;12.048;2023-10-19T17:15:24;11.77;;;8.43;;
53642;SDS011;39546;45.534;12.048;2023-10-19T17:21:26;14.50;;;9.38;;
53642;SDS011;39546;45.534;12.048;2023-10-19T17:27:28;12.65;;;10.55;;
53642;SDS011;39546;45.534;12.048;2023-10-19T17:33:30;13.00;;;9.57;;
53642;SDS011;39546;45.534;12.048;2023-10-19T17:39:33;13.27;;;9.38;;
53642;SDS011;39546;45.534;12.048;2023-10-19T17:45:35;12.30;;;9.63;;
53642;SDS011;39546;45.534;12.048;2023-10-19T17:51:38;13.90;;;9.85;;
53642;SDS011;39546;45.534;12.048;2023-10-19T17:57:44;11.55;;;8.07;;
53642;SDS011;39546;45.534;12.048;2023-10-19T18:04:11;12.93;;;11.18;;
53642;SDS011;39546;45.534;12.048;2023-10-19T18:10:14;12.25;;;9.43;;
53642;SDS011;39546;45.534;12.048;2023-10-19T18:16:17;13.18;;;10.40;;
53642;SDS011;39546;45.534;12.048;2023-10-19T18:22:19;11.05;;;8.98;;
53642;SDS011;39546;45.534;12.048;2023-10-19T18:28:21;12.80;;;10.50;;
53642;SDS011;39546;45.534;12.048;2023-10-19T18:34:24;12.40;;;9.25;;
53642;SDS011;39546;45.534;12.048;2023-10-19T18:40:27;10.30;;;8.07;;
53642;SDS011;39546;45.534;12.048;2023-10-19T18:46:31;12.48;;;9.40;;
53642;SDS011;39546;45.534;12.048;2023-10-19T18:52:33;11.75;;;9.75;;
53642;SDS011;39546;45.534;12.048;2023-10-19T18:58:36;16.30;;;8.02;;
53642;SDS011;39546;45.534;12.048;2023-10-19T19:04:38;9.40;;;7.50;;
53642;SDS011;39546;45.534;12.048;2023-10-19T19:10:40;11.20;;;9.02;;
53642;SDS011;39546;45.534;12.048;2023-10-19T19:16:42;16.33;;;11.07;;
53642;SDS011;39546;45.534;12.048;2023-10-19T19:22:45;12.15;;;10.23;;
53642;SDS011;39546;45.534;12.048;2023-10-19T19:28:47;12.98;;;8.25;;
53642;SDS011;39546;45.534;12.048;2023-10-19T19:34:50;15.27;;;9.50;;
53642;SDS011;39546;45.534;12.048;2023-10-19T19:40:52;13.93;;;9.63;;
53642;SDS011;39546;45.534;12.048;2023-10-19T19:46:54;14.65;;;11.75;;
53642;SDS011;39546;45.534;12.048;2023-10-19T19:52:56;13.77;;;10.52;;
53642;SDS011;39546;45.534;12.048;2023-10-19T19:58:59;13.62;;;10.77;;
53642;SDS011;39546;45.534;12.048;2023-10-19T20:05:01;14.45;;;11.40;;
53642;SDS011;39546;45.534;12.048;2023-10-19T20:11:06;11.70;;;8.85;;
53642;SDS011;39546;45.534;12.048;2023-10-19T20:17:09;12.63;;;10.85;;
53642;SDS011;39546;45.534;12.048;2023-10-19T20:23:12;16.58;;;13.73;;
53642;SDS011;39546;45.534;12.048;2023-10-19T20:29:14;17.50;;;11.15;;
53642;SDS011;39546;45.534;12.048;2023-10-19T20:35:18;15.25;;;11.55;;
53642;SDS011;39546;45.534;12.048;2023-10-19T20:41:22;11.52;;;9.77;;
53642;SDS011;39546;45.534;12.048;2023-10-19T20:47:24;14.50;;;9.40;;
53642;SDS011;39546;45.534;12.048;2023-10-19T20:53:26;13.73;;;9.98;;
53642;SDS011;39546;45.534;12.048;2023-10-19T20:59:29;13.68;;;10.15;;
53642;SDS011;39546;45.534;12.048;2023-10-19T21:05:31;12.20;;;8.55;;
53642;SDS011;39546;45.534;12.048;2023-10-19T21:11:33;11.60;;;8.60;;
53642;SDS011;39546;45.534;12.048;2023-10-19T21:17:36;27.42;;;22.60;;
53642;SDS011;39546;45.534;12.048;2023-10-19T21:23:39;19.08;;;14.95;;
53642;SDS011;39546;45.534;12.048;2023-10-19T21:29:41;14.95;;;11.57;;
53642;SDS011;39546;45.534;12.048;2023-10-19T21:35:43;13.45;;;10.65;;
53642;SDS011;39546;45.534;12.048;2023-10-19T21:41:46;29.92;;;17.48;;
53642;SDS011;39546;45.534;12.048;2023-10-19T21:47:51;29.77;;;21.37;;
53642;SDS011;39546;45.534;12.048;2023-10-19T21:53:53;19.83;;;15.90;;
53642;SDS011;39546;45.534;12.048;2023-10-19T21:59:55;13.68;;;11.63;;
53642;SDS011;39546;45.534;12.048;2023-10-19T22:06:06;13.75;;;9.57;;
53642;SDS011;39546;45.534;12.048;2023-10-19T22:12:08;16.08;;;11.23;;
53642;SDS011;39546;45.534;12.048;2023-10-19T22:18:15;14.98;;;12.63;;
53642;SDS011;39546;45.534;12.048;2023-10-19T22:24:18;12.45;;;10.68;;
53642;SDS011;39546;45.534;12.048;2023-10-19T22:30:20;12.68;;;9.88;;
53642;SDS011;39546;45.534;12.048;2023-10-19T22:36:25;13.05;;;9.25;;
53642;SDS011;39546;45.534;12.048;2023-10-19T22:42:27;11.02;;;8.15;;
53642;SDS011;39546;45.534;12.048;2023-10-19T22:48:30;13.45;;;10.43;;
53642;SDS011;39546;45.534;12.048;2023-10-19T22:54:32;12.60;;;11.05;;
53642;SDS011;39546;45.534;12.048;2023-10-19T23:00:35;15.25;;;9.77;;
53642;SDS011;39546;45.534;12.048;2023-10-19T23:06:38;12.93;;;10.63;;
53642;SDS011;39546;45.534;12.048;2023-10-19T23:12:40;13.70;;;9.68;;
53642;SDS011;39546;45.534;12.048;2023-10-19T23:18:42;16.80;;;11.85;;
53642;SDS011;39546;45.534;12.048;2023-10-19T23:24:48;12.55;;;9.43;;
53642;SDS011;39546;45.534;12.048;2023-10-19T23:30:57;14.02;;;11.15;;
53642;SDS011;39546;45.534;12.048;2023-10-19T23:37:06;14.30;;;10.82;;
53642;SDS011;39546;45.534;12.048;2023-10-19T23:43:12;12.00;;;10.07;;
53642;SDS011;39546;45.534;12.048;2023-10-19T23:49:15;12.68;;;10.32;;
53642;SDS011;39546;45.534;12.048;2023-10-19T23:55:17;13.90;;;10.48;;
